createdAt,value
2019-05-07T00:01:34.244Z,24.80
2019-05-07T00:04:01.988Z,25.87
2019-05-07T00:06:29.497Z,25.67
2019-05-07T00:08:57.108Z,26.57
2019-05-07T00:11:24.834Z,27.40
2019-05-07T00:13:52.403Z,27.77
2019-05-07T00:16:19.750Z,27.83
2019-05-07T00:18:47.026Z,26.90
2019-05-07T00:21:14.417Z,27.93
2019-05-07T00:23:43.191Z,27.57
2019-05-07T00:26:13.083Z,27.53
2019-05-07T00:28:40.125Z,29.23
2019-05-07T00:31:07.617Z,29.27
2019-05-07T00:33:35.881Z,28.97
2019-05-07T00:36:08.996Z,29.80
2019-05-07T00:38:38.693Z,29.83
2019-05-07T00:41:22.928Z,28.30
2019-05-07T00:43:52.790Z,30.53
2019-05-07T00:46:22.852Z,30.90
2019-05-07T00:48:50.210Z,30.53
2019-05-07T00:51:33.361Z,32.63
2019-05-07T00:54:02.812Z,30.10
2019-05-07T00:56:30.210Z,33.70
2019-05-07T00:58:57.678Z,33.80
2019-05-07T01:01:24.951Z,35.23
2019-05-07T01:03:53.355Z,35.13
2019-05-07T01:06:22.756Z,34.03
2019-05-07T01:08:51.954Z,33.23
2019-05-07T01:11:19.256Z,33.80
2019-05-07T01:13:46.514Z,31.90
2019-05-07T01:16:13.907Z,30.23
2019-05-07T01:18:42.036Z,31.83
2019-05-07T01:21:09.615Z,29.90
2019-05-07T01:23:36.873Z,28.37
2019-05-07T01:26:04.140Z,29.37
2019-05-07T01:28:34.462Z,29.90
2019-05-07T01:31:02.215Z,32.37
2019-05-07T01:33:38.745Z,30.40
2019-05-07T01:36:24.362Z,30.53
2019-05-07T01:38:52.283Z,27.53
2019-05-07T01:41:19.742Z,29.30
2019-05-07T01:43:47.060Z,28.27
2019-05-07T01:46:14.440Z,30.40
2019-05-07T01:48:42.994Z,30.20
2019-05-07T01:51:12.843Z,32.07
2019-05-07T01:53:42.851Z,31.53
2019-05-07T01:56:12.412Z,30.00
2019-05-07T01:58:42.478Z,30.43
2019-05-07T02:01:10.236Z,30.50
2019-05-07T02:03:57.269Z,29.30
2019-05-07T02:06:48.156Z,29.10
2019-05-07T02:09:38.268Z,28.20
2019-05-07T02:12:24.043Z,24.17
2019-05-07T02:14:53.306Z,26.17
2019-05-07T02:17:22.799Z,29.30
2019-05-07T02:19:52.630Z,29.53
2019-05-07T02:22:23.552Z,25.80
2019-05-07T02:24:52.386Z,22.80
2019-05-07T04:45:04.923Z,19.23
2019-05-07T04:47:42.075Z,22.43
2019-05-07T04:50:03.760Z,25.97
2019-05-07T04:52:35.160Z,26.93
2019-05-07T04:55:04.070Z,21.73
2019-05-07T04:57:33.129Z,23.67
2019-05-07T05:00:03.471Z,28.50
2019-05-07T05:02:43.592Z,32.40
2019-05-07T05:05:13.181Z,35.47
2019-05-07T05:07:42.875Z,29.47
2019-05-07T05:10:10.100Z,38.27
2019-05-07T05:12:37.412Z,29.57
2019-05-07T05:15:04.917Z,40.13
2019-05-07T05:17:46.786Z,36.93
2019-05-07T05:20:03.632Z,39.73
2019-05-07T05:22:53.090Z,38.83
2019-05-07T05:25:27.755Z,35.50
2019-05-07T05:27:55.124Z,34.93
2019-05-07T05:30:38.101Z,34.03
2019-05-07T05:33:05.613Z,31.93
2019-05-07T05:35:32.885Z,31.70
2019-05-07T05:38:00.170Z,30.60
2019-05-07T05:40:29.208Z,25.67
2019-05-07T05:43:06.262Z,23.87
2019-05-07T05:45:34.505Z,22.47
2019-05-07T05:48:07.455Z,19.90
2019-05-07T05:50:38.030Z,19.47
2019-05-07T05:53:15.012Z,17.87
2019-05-07T05:55:42.867Z,16.67
2019-05-07T05:58:24.270Z,15.97
2019-05-07T06:01:17.432Z,13.93
2019-05-07T06:04:13.112Z,14.13
2019-05-07T06:07:01.132Z,14.30
2019-05-07T06:09:29.224Z,12.67
2019-05-07T06:12:07.571Z,12.70
2019-05-07T06:14:39.105Z,12.73
2019-05-07T06:17:37.768Z,10.90
2019-05-07T06:20:34.151Z,11.10
2019-05-07T06:23:22.296Z,8.43
2019-05-07T06:25:49.030Z,8.13
2019-05-07T06:28:16.277Z,8.20
2019-05-07T06:30:43.543Z,8.07
2019-05-07T06:33:12.399Z,8.20
2019-05-07T06:35:39.890Z,7.97
2019-05-07T06:38:08.749Z,7.53
2019-05-07T06:40:45.641Z,7.33
2019-05-07T06:43:44.768Z,8.57
2019-05-07T06:46:12.622Z,8.07
2019-05-07T06:48:43.672Z,9.23
2019-05-07T06:51:09.570Z,8.60
2019-05-07T06:53:36.823Z,8.30
2019-05-07T06:56:04.235Z,7.70
2019-05-07T06:58:41.874Z,7.47
2019-05-07T07:01:17.415Z,10.97
2019-05-07T07:04:19.377Z,10.90
2019-05-07T07:07:22.474Z,10.90
2019-05-07T07:09:51.930Z,11.20
2019-05-07T07:12:25.545Z,10.67
2019-05-07T07:14:51.817Z,9.67
2019-05-07T07:17:22.163Z,9.37
2019-05-07T07:19:49.406Z,10.47
2019-05-07T07:22:16.815Z,8.90
2019-05-07T07:24:44.146Z,8.27
2019-05-07T07:27:13.214Z,8.13
2019-05-07T07:29:47.367Z,4.93
2019-05-07T07:32:16.579Z,8.07
2019-05-07T07:34:47.286Z,8.60
2019-05-07T07:37:26.775Z,6.47
2019-05-07T07:40:12.853Z,6.03
2019-05-07T07:42:42.540Z,5.60
2019-05-07T07:45:16.765Z,5.37
2019-05-07T07:47:44.723Z,5.43
2019-05-07T07:50:12.965Z,4.13
2019-05-07T07:52:42.046Z,5.83
2019-05-07T07:55:12.636Z,5.93
2019-05-07T07:57:55.562Z,6.10
2019-05-07T08:00:32.873Z,6.50
2019-05-07T08:03:03.032Z,5.67
2019-05-07T08:05:32.534Z,6.43
2019-05-07T08:08:02.148Z,6.50
2019-05-07T08:10:29.131Z,5.77
2019-05-07T08:12:56.406Z,8.10
2019-05-07T08:15:24.747Z,9.30
2019-05-07T08:17:52.288Z,8.70
2019-05-07T08:20:22.052Z,8.63
2019-05-07T08:22:48.861Z,8.83
2019-05-07T08:25:16.179Z,8.77
2019-05-07T08:27:43.477Z,8.83
2019-05-07T08:30:14.011Z,8.90
2019-05-07T08:32:55.354Z,9.23
2019-05-07T08:35:42.189Z,5.73
2019-05-07T08:38:09.493Z,5.33
2019-05-07T08:40:38.201Z,5.70
2019-05-07T08:43:06.231Z,5.70
2019-05-07T08:45:53.106Z,5.80
2019-05-07T08:48:25.409Z,7.53
2019-05-07T08:50:52.849Z,8.17
2019-05-07T08:53:22.361Z,10.97
2019-05-07T08:55:49.566Z,9.93
2019-05-07T08:58:16.978Z,8.67
2019-05-07T09:00:45.265Z,8.10
2019-05-07T09:03:22.083Z,6.40
2019-05-07T09:05:45.509Z,4.40
2019-05-07T09:08:12.950Z,4.17
2019-05-07T09:10:42.205Z,3.83
2019-05-07T09:13:09.467Z,5.10
2019-05-07T09:15:37.308Z,6.13
2019-05-07T09:18:04.554Z,5.00
2019-05-07T09:20:32.257Z,5.40
2019-05-07T09:23:02.020Z,4.87
2019-05-07T09:25:29.062Z,4.47
2019-05-07T09:27:56.537Z,4.00
2019-05-07T09:30:46.408Z,4.20
2019-05-07T09:33:24.196Z,6.70
2019-05-07T09:35:53.159Z,5.80
2019-05-07T09:38:22.307Z,5.63
2019-05-07T09:40:49.858Z,4.77
2019-05-07T09:43:17.227Z,5.00
2019-05-07T09:45:44.654Z,5.57
2019-05-07T09:48:12.178Z,5.07
2019-05-07T09:50:40.198Z,4.90
2019-05-07T09:53:07.590Z,5.40
2019-05-07T09:55:34.834Z,4.80
2019-05-07T09:58:02.226Z,5.27
2019-05-07T10:00:31.815Z,7.17
2019-05-07T10:02:59.066Z,7.13
2019-05-07T10:05:26.349Z,7.50
2019-05-07T10:07:53.568Z,7.93
2019-05-07T10:10:22.281Z,7.50
2019-05-07T10:13:01.712Z,8.13
2019-05-07T10:15:28.912Z,7.97
2019-05-07T10:18:08.100Z,7.70
2019-05-07T10:20:35.374Z,7.77
2019-05-07T10:23:02.780Z,7.20
2019-05-07T10:25:37.457Z,7.27
2019-05-07T10:28:04.883Z,6.70
2019-05-07T10:30:32.266Z,6.83
2019-05-07T10:33:01.652Z,6.27
2019-05-07T10:35:31.090Z,6.20
2019-05-07T10:37:57.906Z,6.20
2019-05-07T10:40:25.606Z,6.30
2019-05-07T10:42:52.923Z,6.57
2019-05-07T10:45:37.094Z,6.07
2019-05-07T10:48:12.304Z,6.87
2019-05-07T10:50:42.533Z,6.57
2019-05-07T10:53:09.918Z,6.77
2019-05-07T10:55:37.424Z,6.83
2019-05-07T10:58:04.910Z,6.70
2019-05-07T11:00:39.095Z,6.60
2019-05-07T11:03:08.703Z,6.93
2019-05-07T11:05:37.063Z,6.57
2019-05-07T11:08:05.441Z,6.10
2019-05-07T11:10:34.675Z,6.27
2019-05-07T11:13:02.544Z,5.70
2019-05-07T11:15:32.763Z,5.70
2019-05-07T11:18:13.940Z,6.13
2019-05-07T11:20:49.324Z,5.27
2019-05-07T11:23:11.308Z,4.63
2019-05-07T11:25:38.583Z,5.87
2019-05-07T11:28:05.932Z,6.20
2019-05-07T11:30:33.234Z,6.13
2019-05-07T11:33:02.488Z,5.33
2019-05-07T11:35:31.714Z,5.37
2019-05-07T11:37:59.068Z,5.77
2019-05-07T11:40:26.436Z,5.33
2019-05-07T11:43:16.249Z,5.03
2019-05-07T11:46:06.233Z,6.07
2019-05-07T11:48:36.527Z,5.40
2019-05-07T11:51:26.408Z,5.13
2019-05-07T11:54:13.446Z,6.00
2019-05-07T11:56:42.254Z,5.53
2019-05-07T11:59:09.947Z,5.23
2019-05-07T12:01:46.680Z,5.40
2019-05-07T12:04:08.879Z,5.30
2019-05-07T12:06:36.361Z,5.37
2019-05-07T12:09:06.339Z,5.87
2019-05-07T12:11:34.010Z,5.83
2019-05-07T12:14:01.998Z,5.73
2019-05-07T12:16:31.874Z,5.37
2019-05-07T12:18:59.055Z,5.63
2019-05-07T12:21:26.378Z,5.37
2019-05-07T12:23:53.631Z,5.77
2019-05-07T12:26:22.246Z,5.17
2019-05-07T12:28:49.705Z,5.03
2019-05-07T12:31:39.285Z,5.30
2019-05-07T12:34:19.401Z,5.13
2019-05-07T12:36:47.108Z,5.20
2019-05-07T12:39:14.462Z,5.93
2019-05-07T12:41:43.043Z,5.07
2019-05-07T12:44:12.771Z,5.50
2019-05-07T12:46:42.094Z,5.30
2019-05-07T12:49:09.175Z,5.07
2019-05-07T12:52:02.376Z,5.90
2019-05-07T12:54:37.551Z,5.53
2019-05-07T12:57:04.920Z,5.83
2019-05-07T12:59:32.358Z,5.90
2019-05-07T13:02:37.292Z,5.80
2019-05-07T13:04:54.739Z,5.87
2019-05-07T13:07:41.793Z,6.00
2019-05-07T13:10:09.477Z,5.97
2019-05-07T13:12:36.816Z,6.17
2019-05-07T13:15:05.382Z,6.00
2019-05-07T13:17:33.874Z,6.03
2019-05-07T13:20:03.777Z,5.90
2019-05-07T13:22:32.587Z,5.10
2019-05-07T13:25:02.154Z,4.83
2019-05-07T13:27:31.869Z,4.80
2019-05-07T13:29:59.141Z,5.10
2019-05-07T13:32:26.755Z,5.30
2019-05-07T13:34:55.265Z,5.10
2019-05-07T13:37:26.218Z,5.63
2019-05-07T13:39:58.365Z,5.97
2019-05-07T13:42:34.299Z,5.93
2019-05-07T13:45:31.797Z,6.07
2019-05-07T13:48:11.988Z,5.73
2019-05-07T13:50:39.219Z,5.80
2019-05-07T13:53:06.747Z,5.60
2019-05-07T13:55:34.140Z,5.90
2019-05-07T13:58:01.610Z,5.90
2019-05-07T14:00:34.448Z,6.10
2019-05-07T14:03:03.261Z,5.80
2019-05-07T14:05:32.360Z,6.77
2019-05-07T14:07:59.845Z,6.50
2019-05-07T14:10:27.507Z,6.30
2019-05-07T14:13:07.618Z,5.73
2019-05-07T14:15:24.241Z,6.10
2019-05-07T14:17:52.646Z,6.10
2019-05-07T14:20:22.199Z,5.70
2019-05-07T14:22:51.708Z,6.00
2019-05-07T14:25:21.850Z,5.57
2019-05-07T14:27:49.662Z,6.00
2019-05-07T14:30:18.219Z,5.63
2019-05-07T14:32:58.922Z,5.60
2019-05-07T14:35:53.835Z,5.67
2019-05-07T14:38:25.401Z,6.00
2019-05-07T14:40:52.857Z,7.00
2019-05-07T14:43:42.620Z,6.80
2019-05-07T14:46:11.955Z,7.77
2019-05-07T14:48:41.923Z,7.37
2019-05-07T14:51:08.662Z,7.57
2019-05-07T14:53:35.942Z,7.37
2019-05-07T14:56:04.663Z,6.97
2019-05-07T14:58:32.104Z,7.13
2019-05-07T15:00:59.477Z,7.67
2019-05-07T15:03:26.937Z,7.63
2019-05-07T15:05:54.578Z,8.10
2019-05-07T15:08:22.123Z,8.07
2019-05-07T15:10:49.420Z,8.33
2019-05-07T15:13:18.511Z,9.00
2019-05-07T15:15:46.506Z,8.00
2019-05-07T15:18:22.981Z,8.60
2019-05-07T15:20:52.396Z,9.57
2019-05-07T15:23:27.078Z,10.30
2019-05-07T15:25:54.402Z,9.53
2019-05-07T15:28:22.800Z,10.80
2019-05-07T15:30:59.251Z,11.00
2019-05-07T15:33:26.634Z,10.90
2019-05-07T15:35:54.142Z,10.87
2019-05-07T15:38:22.352Z,10.43
2019-05-07T15:40:51.868Z,11.10
2019-05-07T15:43:19.782Z,11.00
2019-05-07T15:45:47.078Z,11.83
2019-05-07T15:48:14.442Z,11.53
2019-05-07T15:50:42.871Z,10.93
2019-05-07T15:53:48.511Z,10.10
2019-05-07T15:56:15.949Z,9.57
2019-05-07T15:58:44.252Z,9.70
2019-05-07T16:01:12.865Z,10.20
2019-05-07T16:03:42.952Z,9.90
2019-05-07T16:06:12.639Z,10.10
2019-05-07T16:08:51.462Z,10.07
2019-05-07T16:11:18.757Z,10.70
2019-05-07T16:13:55.209Z,9.50
2019-05-07T16:16:23.582Z,9.83
2019-05-07T16:19:07.339Z,10.07
2019-05-07T16:21:34.685Z,10.60
2019-05-07T16:24:04.138Z,10.60
2019-05-07T16:26:32.669Z,9.97
2019-05-07T16:29:04.382Z,10.10
2019-05-07T16:31:29.902Z,10.43
2019-05-07T16:33:57.282Z,11.10
2019-05-07T16:36:24.580Z,10.60
2019-05-07T16:38:52.695Z,11.00
2019-05-07T16:41:22.279Z,11.10
2019-05-07T16:43:49.682Z,11.63
2019-05-07T16:46:16.986Z,11.67
2019-05-07T16:48:44.711Z,11.20
2019-05-07T16:51:12.864Z,10.47
2019-05-07T16:53:42.139Z,11.27
2019-05-07T16:56:09.598Z,10.73
2019-05-07T16:58:53.706Z,10.53
2019-05-07T17:01:22.232Z,10.67
2019-05-07T17:03:54.468Z,10.83
2019-05-07T17:06:24.741Z,10.57
2019-05-07T17:09:00.088Z,10.23
2019-05-07T17:11:27.535Z,11.20
2019-05-07T17:13:54.845Z,10.60
2019-05-07T17:16:22.834Z,9.80
2019-05-07T17:18:51.838Z,10.13
2019-05-07T17:21:21.635Z,10.40
2019-05-07T17:23:48.669Z,9.77
2019-05-07T17:26:16.013Z,10.93
2019-05-07T17:28:43.335Z,10.40
2019-05-07T17:31:12.392Z,10.47
2019-05-07T17:33:39.897Z,11.30
2019-05-07T17:36:07.226Z,9.77
2019-05-07T17:38:34.611Z,10.47
2019-05-07T17:41:10.880Z,11.53
2019-05-07T17:43:32.519Z,10.70
2019-05-07T17:46:00.051Z,9.90
2019-05-07T17:48:27.322Z,10.40
2019-05-07T17:51:23.417Z,10.73
2019-05-07T17:53:59.699Z,10.80
2019-05-07T17:56:22.379Z,10.03
2019-05-07T17:58:52.049Z,9.63
2019-05-07T18:01:24.465Z,10.20
2019-05-07T18:03:52.136Z,9.60
2019-05-07T18:06:19.910Z,9.83
2019-05-07T18:08:47.339Z,10.80
2019-05-07T18:11:20.890Z,10.90
2019-05-07T18:13:45.136Z,10.90
2019-05-07T18:16:33.672Z,11.10
2019-05-07T18:19:02.086Z,10.40
2019-05-07T18:21:32.548Z,10.57
2019-05-07T18:24:12.728Z,10.60
2019-05-07T18:26:31.492Z,10.63
2019-05-07T18:28:59.252Z,11.07
2019-05-07T18:31:44.648Z,10.83
2019-05-07T18:34:12.869Z,12.33
2019-05-07T18:36:42.232Z,12.00
2019-05-07T18:39:10.269Z,10.70
2019-05-07T18:41:37.855Z,11.07
2019-05-07T18:44:12.415Z,11.53
2019-05-07T18:46:34.548Z,11.80
2019-05-07T18:49:03.410Z,11.60
2019-05-07T18:51:32.193Z,12.10
2019-05-07T18:53:59.848Z,12.77
2019-05-07T18:56:28.938Z,13.10
2019-05-07T18:58:56.356Z,12.27
2019-05-07T19:01:25.544Z,12.60
2019-05-07T19:03:53.672Z,12.90
2019-05-07T19:06:22.272Z,12.60
2019-05-07T19:08:49.806Z,13.90
2019-05-07T19:11:17.291Z,12.00
2019-05-07T19:13:44.800Z,12.53
2019-05-07T19:16:12.783Z,13.10
2019-05-07T19:18:42.852Z,12.13
2019-05-07T19:21:09.607Z,12.33
2019-05-07T19:23:37.046Z,13.27
2019-05-07T19:26:04.446Z,11.90
2019-05-07T19:28:32.938Z,12.30
2019-05-07T19:31:00.385Z,12.40
2019-05-07T19:33:27.804Z,12.53
2019-05-07T19:35:55.097Z,12.83
2019-05-07T19:38:22.524Z,12.50
2019-05-07T19:40:49.903Z,13.30
2019-05-07T19:43:17.179Z,11.90
2019-05-07T19:45:44.558Z,12.53
2019-05-07T19:48:13.007Z,13.23
2019-05-07T19:50:41.997Z,12.20
2019-05-07T19:53:09.609Z,13.47
2019-05-07T19:55:56.466Z,12.93
2019-05-07T19:58:23.822Z,13.97
2019-05-07T20:00:56.884Z,13.67
2019-05-07T20:03:22.317Z,13.00
2019-05-07T20:05:49.657Z,13.53
2019-05-07T20:08:17.056Z,13.97
2019-05-07T20:10:51.954Z,14.10
2019-05-07T20:13:19.351Z,13.37
2019-05-07T20:15:52.110Z,13.60
2019-05-07T20:18:21.924Z,14.23
2019-05-07T20:20:49.162Z,14.13
2019-05-07T20:23:16.445Z,14.17
2019-05-07T20:25:43.754Z,14.00
2019-05-07T20:28:12.711Z,14.53
2019-05-07T20:30:41.799Z,14.43
2019-05-07T20:33:09.234Z,13.83
2019-05-07T20:35:39.362Z,14.63
2019-05-07T20:38:05.907Z,14.63
2019-05-07T20:40:33.200Z,15.20
2019-05-07T20:43:01.911Z,15.10
2019-05-07T20:45:31.816Z,15.60
2019-05-07T20:47:58.753Z,14.23
2019-05-07T20:50:26.051Z,13.83
2019-05-07T20:52:53.372Z,14.40
2019-05-07T20:55:35.792Z,14.10
2019-05-07T20:58:03.322Z,14.23
2019-05-07T21:00:32.573Z,14.83
2019-05-07T21:03:19.029Z,14.73
2019-05-07T21:05:46.922Z,15.73
2019-05-07T21:08:14.223Z,14.87
2019-05-07T21:10:42.812Z,15.67
2019-05-07T21:13:26.192Z,15.40
2019-05-07T21:15:41.765Z,15.43
2019-05-07T21:18:08.960Z,15.27
2019-05-07T21:20:36.379Z,15.13
2019-05-07T21:23:04.022Z,15.20
2019-05-07T21:25:42.233Z,15.87
2019-05-07T21:28:02.087Z,15.13
2019-05-07T21:30:29.494Z,15.87
2019-05-07T21:32:56.795Z,16.50
2019-05-07T21:35:24.167Z,17.27
2019-05-07T21:37:52.394Z,16.53
2019-05-07T21:40:19.783Z,16.13
2019-05-07T21:42:47.102Z,17.20
2019-05-07T21:45:14.474Z,17.67
2019-05-07T21:47:41.739Z,16.90
2019-05-07T21:50:09.184Z,17.07
2019-05-07T21:52:39.509Z,17.83
2019-05-07T21:55:14.642Z,17.33
2019-05-07T21:57:54.604Z,18.10
2019-05-07T22:00:38.246Z,17.07
2019-05-07T22:03:12.508Z,17.87
2019-05-07T22:05:44.103Z,17.43
2019-05-07T22:08:12.378Z,18.63
2019-05-07T22:10:39.805Z,17.87
2019-05-07T22:13:07.120Z,17.23
2019-05-07T22:15:34.464Z,17.97
2019-05-07T22:18:02.690Z,17.53
2019-05-07T22:20:31.970Z,17.63
2019-05-07T22:22:59.527Z,17.73
2019-05-07T22:25:26.905Z,17.00
2019-05-07T22:27:57.603Z,17.17
2019-05-07T22:30:34.238Z,18.83
2019-05-07T22:33:09.348Z,19.27
2019-05-07T22:35:39.928Z,15.77
2019-05-07T22:38:32.387Z,17.33
2019-05-07T22:41:02.953Z,18.93
2019-05-07T22:43:34.339Z,17.83
2019-05-07T22:46:12.466Z,18.80
2019-05-07T22:48:41.858Z,17.87
2019-05-07T22:51:13.833Z,19.37
2019-05-07T22:53:41.425Z,18.83
2019-05-07T22:56:14.104Z,19.07
2019-05-07T22:58:47.233Z,19.13
2019-05-07T23:01:17.968Z,18.43
2019-05-07T23:03:53.965Z,19.30
2019-05-07T23:06:24.425Z,19.13
2019-05-07T23:08:53.596Z,19.57
2019-05-07T23:11:22.909Z,18.73
2019-05-07T23:13:54.761Z,18.50
2019-05-07T23:16:27.387Z,19.37
2019-05-07T23:18:55.235Z,18.83
2019-05-07T23:21:33.119Z,18.17
2019-05-07T23:24:17.734Z,17.57
2019-05-07T23:26:50.286Z,17.50
2019-05-07T23:29:28.034Z,18.07
2019-05-07T23:32:01.929Z,19.30
2019-05-07T23:34:54.597Z,18.60
2019-05-07T23:41:26.573Z,17.80
